sensor_id;sensor_type;location;lat;lon;timestamp;P1;durP1;ratioP1;P2;durP2;ratioP2
75785;SDS011;64402;44.708;37.644;2024-01-30T00:00:02;5.45;;;2.30;;
75785;SDS011;64402;44.708;37.644;2024-01-30T00:02:30;5.78;;;2.20;;
75785;SDS011;64402;44.708;37.644;2024-01-30T00:04:57;5.45;;;2.13;;
75785;SDS011;64402;44.708;37.644;2024-01-30T00:07:23;5.30;;;2.20;;
75785;SDS011;64402;44.708;37.644;2024-01-30T00:09:49;5.90;;;1.73;;
75785;SDS011;64402;44.708;37.644;2024-01-30T00:12:16;4.60;;;1.83;;
75785;SDS011;64402;44.708;37.644;2024-01-30T00:14:42;5.97;;;2.30;;
75785;SDS011;64402;44.708;37.644;2024-01-30T00:17:11;8.10;;;2.30;;
75785;SDS011;64402;44.708;37.644;2024-01-30T00:19:37;6.20;;;1.98;;
75785;SDS011;64402;44.708;37.644;2024-01-30T00:22:03;5.55;;;1.90;;
75785;SDS011;64402;44.708;37.644;2024-01-30T00:24:30;4.75;;;1.88;;
75785;SDS011;64402;44.708;37.644;2024-01-30T00:26:56;7.10;;;2.38;;
75785;SDS011;64402;44.708;37.644;2024-01-30T00:29:22;6.38;;;2.08;;
75785;SDS011;64402;44.708;37.644;2024-01-30T00:31:48;6.13;;;2.17;;
75785;SDS011;64402;44.708;37.644;2024-01-30T00:34:14;7.82;;;2.35;;
75785;SDS011;64402;44.708;37.644;2024-01-30T00:36:40;7.22;;;2.40;;
75785;SDS011;64402;44.708;37.644;2024-01-30T00:39:07;5.82;;;2.25;;
75785;SDS011;64402;44.708;37.644;2024-01-30T00:41:34;9.73;;;2.72;;
75785;SDS011;64402;44.708;37.644;2024-01-30T00:44:01;6.03;;;2.20;;
75785;SDS011;64402;44.708;37.644;2024-01-30T00:46:27;7.88;;;2.53;;
75785;SDS011;64402;44.708;37.644;2024-01-30T00:48:53;6.28;;;2.20;;
75785;SDS011;64402;44.708;37.644;2024-01-30T00:51:19;8.48;;;2.35;;
75785;SDS011;64402;44.708;37.644;2024-01-30T00:53:45;6.25;;;2.45;;
75785;SDS011;64402;44.708;37.644;2024-01-30T00:56:11;8.23;;;2.67;;
75785;SDS011;64402;44.708;37.644;2024-01-30T00:58:37;6.75;;;2.67;;
75785;SDS011;64402;44.708;37.644;2024-01-30T01:01:04;6.72;;;2.53;;
75785;SDS011;64402;44.708;37.644;2024-01-30T01:03:30;6.63;;;2.53;;
75785;SDS011;64402;44.708;37.644;2024-01-30T01:05:56;6.78;;;2.30;;
75785;SDS011;64402;44.708;37.644;2024-01-30T01:08:22;6.55;;;2.22;;
75785;SDS011;64402;44.708;37.644;2024-01-30T01:10:48;7.32;;;2.40;;
75785;SDS011;64402;44.708;37.644;2024-01-30T01:13:14;5.40;;;2.30;;
75785;SDS011;64402;44.708;37.644;2024-01-30T01:15:40;6.03;;;2.13;;
75785;SDS011;64402;44.708;37.644;2024-01-30T01:18:07;6.07;;;2.17;;
75785;SDS011;64402;44.708;37.644;2024-01-30T01:20:33;5.43;;;2.20;;
75785;SDS011;64402;44.708;37.644;2024-01-30T01:22:59;5.85;;;1.95;;
75785;SDS011;64402;44.708;37.644;2024-01-30T01:25:25;6.28;;;2.60;;
75785;SDS011;64402;44.708;37.644;2024-01-30T01:27:51;5.43;;;2.35;;
75785;SDS011;64402;44.708;37.644;2024-01-30T01:30:18;6.22;;;1.98;;
75785;SDS011;64402;44.708;37.644;2024-01-30T01:32:50;8.55;;;1.92;;
75785;SDS011;64402;44.708;37.644;2024-01-30T01:35:23;6.88;;;2.60;;
75785;SDS011;64402;44.708;37.644;2024-01-30T01:37:53;6.00;;;2.25;;
75785;SDS011;64402;44.708;37.644;2024-01-30T01:40:23;5.20;;;1.98;;
75785;SDS011;64402;44.708;37.644;2024-01-30T01:42:50;7.03;;;2.10;;
75785;SDS011;64402;44.708;37.644;2024-01-30T01:45:20;6.30;;;2.15;;
75785;SDS011;64402;44.708;37.644;2024-01-30T01:47:53;5.50;;;2.20;;
75785;SDS011;64402;44.708;37.644;2024-01-30T01:50:20;5.95;;;1.92;;
75785;SDS011;64402;44.708;37.644;2024-01-30T01:52:47;6.80;;;1.90;;
75785;SDS011;64402;44.708;37.644;2024-01-30T01:55:17;5.35;;;2.00;;
75785;SDS011;64402;44.708;37.644;2024-01-30T01:57:50;6.47;;;2.40;;
75785;SDS011;64402;44.708;37.644;2024-01-30T02:00:18;5.47;;;1.90;;
75785;SDS011;64402;44.708;37.644;2024-01-30T02:02:45;5.15;;;1.45;;
75785;SDS011;64402;44.708;37.644;2024-01-30T02:05:12;5.03;;;1.98;;
75785;SDS011;64402;44.708;37.644;2024-01-30T02:07:38;4.65;;;1.73;;
75785;SDS011;64402;44.708;37.644;2024-01-30T02:10:06;5.35;;;1.75;;
75785;SDS011;64402;44.708;37.644;2024-01-30T02:12:34;6.18;;;1.95;;
75785;SDS011;64402;44.708;37.644;2024-01-30T02:15:00;5.32;;;1.90;;
75785;SDS011;64402;44.708;37.644;2024-01-30T02:17:26;6.57;;;1.77;;
75785;SDS011;64402;44.708;37.644;2024-01-30T02:19:52;5.20;;;1.90;;
75785;SDS011;64402;44.708;37.644;2024-01-30T02:22:19;6.50;;;2.45;;
75785;SDS011;64402;44.708;37.644;2024-01-30T02:24:45;5.35;;;2.00;;
75785;SDS011;64402;44.708;37.644;2024-01-30T02:27:12;4.40;;;1.73;;
75785;SDS011;64402;44.708;37.644;2024-01-30T02:29:38;11.70;;;4.53;;
75785;SDS011;64402;44.708;37.644;2024-01-30T02:32:04;8.25;;;3.10;;
75785;SDS011;64402;44.708;37.644;2024-01-30T02:34:31;6.55;;;2.20;;
75785;SDS011;64402;44.708;37.644;2024-01-30T02:36:58;5.50;;;1.70;;
75785;SDS011;64402;44.708;37.644;2024-01-30T02:39:24;6.43;;;1.77;;
75785;SDS011;64402;44.708;37.644;2024-01-30T02:41:50;5.55;;;2.10;;
75785;SDS011;64402;44.708;37.644;2024-01-30T02:44:16;5.18;;;1.70;;
75785;SDS011;64402;44.708;37.644;2024-01-30T02:46:43;7.43;;;2.35;;
75785;SDS011;64402;44.708;37.644;2024-01-30T02:49:09;5.18;;;1.85;;
75785;SDS011;64402;44.708;37.644;2024-01-30T02:51:35;8.35;;;2.42;;
75785;SDS011;64402;44.708;37.644;2024-01-30T02:54:01;6.80;;;1.80;;
75785;SDS011;64402;44.708;37.644;2024-01-30T02:56:27;4.45;;;1.80;;
75785;SDS011;64402;44.708;37.644;2024-01-30T02:58:53;6.53;;;2.20;;
75785;SDS011;64402;44.708;37.644;2024-01-30T03:01:19;5.88;;;1.60;;
75785;SDS011;64402;44.708;37.644;2024-01-30T03:03:46;4.82;;;2.00;;
75785;SDS011;64402;44.708;37.644;2024-01-30T03:06:12;4.93;;;2.00;;
75785;SDS011;64402;44.708;37.644;2024-01-30T03:11:06;4.90;;;1.55;;
75785;SDS011;64402;44.708;37.644;2024-01-30T03:13:32;4.75;;;1.70;;
75785;SDS011;64402;44.708;37.644;2024-01-30T03:15:58;4.25;;;1.80;;
75785;SDS011;64402;44.708;37.644;2024-01-30T03:18:25;6.03;;;1.83;;
75785;SDS011;64402;44.708;37.644;2024-01-30T03:20:51;6.50;;;1.80;;
75785;SDS011;64402;44.708;37.644;2024-01-30T03:23:17;4.03;;;1.70;;
75785;SDS011;64402;44.708;37.644;2024-01-30T03:25:43;5.10;;;1.90;;
75785;SDS011;64402;44.708;37.644;2024-01-30T03:28:09;5.82;;;2.22;;
75785;SDS011;64402;44.708;37.644;2024-01-30T03:30:35;5.43;;;1.77;;
75785;SDS011;64402;44.708;37.644;2024-01-30T03:33:02;4.90;;;1.80;;
75785;SDS011;64402;44.708;37.644;2024-01-30T03:35:28;5.40;;;1.90;;
75785;SDS011;64402;44.708;37.644;2024-01-30T03:37:54;6.05;;;2.03;;
75785;SDS011;64402;44.708;37.644;2024-01-30T03:40:20;5.22;;;1.95;;
75785;SDS011;64402;44.708;37.644;2024-01-30T03:42:46;6.65;;;2.38;;
75785;SDS011;64402;44.708;37.644;2024-01-30T03:45:13;5.32;;;1.90;;
75785;SDS011;64402;44.708;37.644;2024-01-30T03:47:39;6.35;;;2.10;;
75785;SDS011;64402;44.708;37.644;2024-01-30T03:50:05;9.90;;;2.10;;
75785;SDS011;64402;44.708;37.644;2024-01-30T03:52:31;8.73;;;2.10;;
75785;SDS011;64402;44.708;37.644;2024-01-30T03:54:58;5.35;;;1.80;;
75785;SDS011;64402;44.708;37.644;2024-01-30T03:57:24;6.30;;;2.10;;
75785;SDS011;64402;44.708;37.644;2024-01-30T03:59:50;5.57;;;2.13;;
75785;SDS011;64402;44.708;37.644;2024-01-30T04:02:16;5.10;;;1.98;;
75785;SDS011;64402;44.708;37.644;2024-01-30T04:04:43;5.68;;;1.80;;
75785;SDS011;64402;44.708;37.644;2024-01-30T04:07:09;6.15;;;2.13;;
75785;SDS011;64402;44.708;37.644;2024-01-30T04:09:35;9.18;;;2.28;;
75785;SDS011;64402;44.708;37.644;2024-01-30T04:12:02;7.00;;;2.30;;
75785;SDS011;64402;44.708;37.644;2024-01-30T04:14:29;5.97;;;2.08;;
75785;SDS011;64402;44.708;37.644;2024-01-30T04:16:55;7.13;;;2.47;;
75785;SDS011;64402;44.708;37.644;2024-01-30T04:19:21;6.10;;;2.15;;
75785;SDS011;64402;44.708;37.644;2024-01-30T04:21:47;6.68;;;2.50;;
75785;SDS011;64402;44.708;37.644;2024-01-30T04:24:14;9.00;;;2.30;;
75785;SDS011;64402;44.708;37.644;2024-01-30T04:26:42;6.10;;;2.40;;
75785;SDS011;64402;44.708;37.644;2024-01-30T04:29:09;6.97;;;2.45;;
75785;SDS011;64402;44.708;37.644;2024-01-30T04:31:36;7.95;;;2.45;;
75785;SDS011;64402;44.708;37.644;2024-01-30T04:34:02;8.50;;;2.38;;
75785;SDS011;64402;44.708;37.644;2024-01-30T04:36:28;6.57;;;2.03;;
75785;SDS011;64402;44.708;37.644;2024-01-30T04:38:54;5.55;;;1.77;;
75785;SDS011;64402;44.708;37.644;2024-01-30T04:41:21;5.00;;;1.83;;
75785;SDS011;64402;44.708;37.644;2024-01-30T04:43:50;4.22;;;1.60;;
75785;SDS011;64402;44.708;37.644;2024-01-30T04:46:16;8.70;;;1.80;;
75785;SDS011;64402;44.708;37.644;2024-01-30T04:48:42;6.32;;;1.60;;
75785;SDS011;64402;44.708;37.644;2024-01-30T04:51:08;6.72;;;1.42;;
75785;SDS011;64402;44.708;37.644;2024-01-30T04:53:34;4.25;;;1.50;;
75785;SDS011;64402;44.708;37.644;2024-01-30T04:56:01;4.55;;;1.55;;
75785;SDS011;64402;44.708;37.644;2024-01-30T04:58:27;5.90;;;1.67;;
75785;SDS011;64402;44.708;37.644;2024-01-30T05:00:53;7.28;;;1.88;;
75785;SDS011;64402;44.708;37.644;2024-01-30T05:03:19;6.28;;;1.30;;
75785;SDS011;64402;44.708;37.644;2024-01-30T05:05:47;3.95;;;1.50;;
75785;SDS011;64402;44.708;37.644;2024-01-30T05:08:13;4.20;;;1.50;;
75785;SDS011;64402;44.708;37.644;2024-01-30T05:10:39;4.00;;;1.35;;
75785;SDS011;64402;44.708;37.644;2024-01-30T05:13:05;4.70;;;1.52;;
75785;SDS011;64402;44.708;37.644;2024-01-30T05:15:32;5.03;;;1.38;;
75785;SDS011;64402;44.708;37.644;2024-01-30T05:17:58;6.15;;;1.48;;
75785;SDS011;64402;44.708;37.644;2024-01-30T05:20:24;6.18;;;1.85;;
75785;SDS011;64402;44.708;37.644;2024-01-30T05:22:53;4.45;;;1.58;;
75785;SDS011;64402;44.708;37.644;2024-01-30T05:25:19;4.57;;;1.52;;
75785;SDS011;64402;44.708;37.644;2024-01-30T05:27:46;4.55;;;1.75;;
75785;SDS011;64402;44.708;37.644;2024-01-30T05:30:12;4.05;;;1.52;;
75785;SDS011;64402;44.708;37.644;2024-01-30T05:32:38;6.05;;;2.00;;
75785;SDS011;64402;44.708;37.644;2024-01-30T05:35:05;5.72;;;2.10;;
75785;SDS011;64402;44.708;37.644;2024-01-30T05:37:33;11.65;;;2.00;;
75785;SDS011;64402;44.708;37.644;2024-01-30T05:39:59;5.60;;;2.03;;
75785;SDS011;64402;44.708;37.644;2024-01-30T05:42:26;5.85;;;1.60;;
75785;SDS011;64402;44.708;37.644;2024-01-30T05:44:52;6.35;;;2.03;;
75785;SDS011;64402;44.708;37.644;2024-01-30T05:47:19;10.75;;;1.88;;
75785;SDS011;64402;44.708;37.644;2024-01-30T05:49:45;5.10;;;1.80;;
75785;SDS011;64402;44.708;37.644;2024-01-30T05:52:11;5.40;;;1.90;;
75785;SDS011;64402;44.708;37.644;2024-01-30T05:54:37;5.45;;;1.73;;
75785;SDS011;64402;44.708;37.644;2024-01-30T05:57:08;4.60;;;1.52;;
75785;SDS011;64402;44.708;37.644;2024-01-30T05:59:35;6.57;;;1.90;;
75785;SDS011;64402;44.708;37.644;2024-01-30T06:02:02;8.13;;;1.67;;
75785;SDS011;64402;44.708;37.644;2024-01-30T06:04:28;7.00;;;1.60;;
75785;SDS011;64402;44.708;37.644;2024-01-30T06:06:54;4.60;;;1.60;;
75785;SDS011;64402;44.708;37.644;2024-01-30T06:09:21;4.60;;;1.50;;
75785;SDS011;64402;44.708;37.644;2024-01-30T06:11:52;3.97;;;1.58;;
75785;SDS011;64402;44.708;37.644;2024-01-30T06:14:18;4.75;;;1.83;;
75785;SDS011;64402;44.708;37.644;2024-01-30T06:16:44;5.30;;;1.52;;
75785;SDS011;64402;44.708;37.644;2024-01-30T06:19:10;4.75;;;1.33;;
75785;SDS011;64402;44.708;37.644;2024-01-30T06:21:37;4.70;;;1.50;;
75785;SDS011;64402;44.708;37.644;2024-01-30T06:24:04;5.70;;;1.92;;
75785;SDS011;64402;44.708;37.644;2024-01-30T06:26:31;6.05;;;1.83;;
75785;SDS011;64402;44.708;37.644;2024-01-30T06:28:57;9.40;;;1.85;;
75785;SDS011;64402;44.708;37.644;2024-01-30T06:31:24;9.82;;;2.80;;
75785;SDS011;64402;44.708;37.644;2024-01-30T06:33:50;8.48;;;2.00;;
75785;SDS011;64402;44.708;37.644;2024-01-30T06:36:16;7.07;;;1.70;;
75785;SDS011;64402;44.708;37.644;2024-01-30T06:38:42;9.35;;;1.83;;
75785;SDS011;64402;44.708;37.644;2024-01-30T06:41:09;4.70;;;1.58;;
75785;SDS011;64402;44.708;37.644;2024-01-30T06:43:35;9.73;;;2.88;;
75785;SDS011;64402;44.708;37.644;2024-01-30T06:46:01;12.98;;;1.90;;
75785;SDS011;64402;44.708;37.644;2024-01-30T06:48:27;9.30;;;1.58;;
75785;SDS011;64402;44.708;37.644;2024-01-30T06:50:54;5.25;;;1.60;;
75785;SDS011;64402;44.708;37.644;2024-01-30T06:53:20;5.60;;;1.30;;
75785;SDS011;64402;44.708;37.644;2024-01-30T06:55:46;4.32;;;1.35;;
75785;SDS011;64402;44.708;37.644;2024-01-30T06:58:13;7.10;;;1.40;;
75785;SDS011;64402;44.708;37.644;2024-01-30T07:00:39;6.95;;;2.08;;
75785;SDS011;64402;44.708;37.644;2024-01-30T07:03:05;4.13;;;1.60;;
75785;SDS011;64402;44.708;37.644;2024-01-30T07:05:31;9.27;;;1.45;;
75785;SDS011;64402;44.708;37.644;2024-01-30T07:07:58;6.30;;;1.40;;
75785;SDS011;64402;44.708;37.644;2024-01-30T07:10:24;13.93;;;3.85;;
75785;SDS011;64402;44.708;37.644;2024-01-30T07:12:50;5.55;;;1.40;;
75785;SDS011;64402;44.708;37.644;2024-01-30T07:15:17;4.65;;;1.75;;
75785;SDS011;64402;44.708;37.644;2024-01-30T07:17:45;6.88;;;1.30;;
75785;SDS011;64402;44.708;37.644;2024-01-30T07:20:12;4.38;;;1.30;;
75785;SDS011;64402;44.708;37.644;2024-01-30T07:22:39;10.65;;;1.67;;
75785;SDS011;64402;44.708;37.644;2024-01-30T07:25:08;7.75;;;2.42;;
75785;SDS011;64402;44.708;37.644;2024-01-30T07:27:34;9.18;;;1.52;;
75785;SDS011;64402;44.708;37.644;2024-01-30T07:30:01;5.47;;;1.48;;
75785;SDS011;64402;44.708;37.644;2024-01-30T07:32:27;9.23;;;1.30;;
75785;SDS011;64402;44.708;37.644;2024-01-30T07:34:54;4.28;;;1.15;;
75785;SDS011;64402;44.708;37.644;2024-01-30T07:37:20;6.22;;;1.65;;
75785;SDS011;64402;44.708;37.644;2024-01-30T07:39:47;7.57;;;1.35;;
75785;SDS011;64402;44.708;37.644;2024-01-30T07:42:13;9.65;;;1.58;;
75785;SDS011;64402;44.708;37.644;2024-01-30T07:44:39;7.68;;;1.60;;
75785;SDS011;64402;44.708;37.644;2024-01-30T07:47:05;6.82;;;1.25;;
75785;SDS011;64402;44.708;37.644;2024-01-30T07:49:33;8.45;;;1.55;;
75785;SDS011;64402;44.708;37.644;2024-01-30T07:51:59;8.63;;;1.33;;
75785;SDS011;64402;44.708;37.644;2024-01-30T07:54:26;11.48;;;1.27;;
75785;SDS011;64402;44.708;37.644;2024-01-30T07:56:52;11.85;;;3.85;;
75785;SDS011;64402;44.708;37.644;2024-01-30T07:59:18;8.35;;;3.00;;
75785;SDS011;64402;44.708;37.644;2024-01-30T08:01:47;7.75;;;1.60;;
75785;SDS011;64402;44.708;37.644;2024-01-30T08:04:13;5.63;;;1.58;;
75785;SDS011;64402;44.708;37.644;2024-01-30T08:06:39;4.43;;;1.35;;
75785;SDS011;64402;44.708;37.644;2024-01-30T08:09:05;3.17;;;1.20;;
75785;SDS011;64402;44.708;37.644;2024-01-30T08:11:32;6.45;;;1.25;;
75785;SDS011;64402;44.708;37.644;2024-01-30T08:13:59;4.07;;;1.20;;
75785;SDS011;64402;44.708;37.644;2024-01-30T08:16:25;5.28;;;1.92;;
75785;SDS011;64402;44.708;37.644;2024-01-30T08:18:51;6.47;;;1.40;;
75785;SDS011;64402;44.708;37.644;2024-01-30T08:21:22;5.32;;;1.50;;
75785;SDS011;64402;44.708;37.644;2024-01-30T08:23:48;6.45;;;1.42;;
75785;SDS011;64402;44.708;37.644;2024-01-30T08:26:19;6.43;;;1.30;;
75785;SDS011;64402;44.708;37.644;2024-01-30T08:28:46;4.88;;;1.10;;
75785;SDS011;64402;44.708;37.644;2024-01-30T08:31:12;5.13;;;1.45;;
75785;SDS011;64402;44.708;37.644;2024-01-30T08:33:38;8.85;;;1.95;;
75785;SDS011;64402;44.708;37.644;2024-01-30T08:36:04;6.22;;;2.05;;
75785;SDS011;64402;44.708;37.644;2024-01-30T08:38:30;12.45;;;2.30;;
75785;SDS011;64402;44.708;37.644;2024-01-30T08:40:56;10.90;;;2.75;;
75785;SDS011;64402;44.708;37.644;2024-01-30T08:43:23;9.07;;;1.33;;
75785;SDS011;64402;44.708;37.644;2024-01-30T08:45:49;6.15;;;1.90;;
75785;SDS011;64402;44.708;37.644;2024-01-30T08:48:20;6.57;;;1.80;;
75785;SDS011;64402;44.708;37.644;2024-01-30T08:50:48;6.32;;;1.30;;
75785;SDS011;64402;44.708;37.644;2024-01-30T08:53:14;6.13;;;1.35;;
75785;SDS011;64402;44.708;37.644;2024-01-30T08:55:40;6.43;;;1.20;;
75785;SDS011;64402;44.708;37.644;2024-01-30T08:58:06;5.60;;;1.40;;
75785;SDS011;64402;44.708;37.644;2024-01-30T09:00:33;4.18;;;1.33;;
75785;SDS011;64402;44.708;37.644;2024-01-30T09:02:59;12.68;;;1.80;;
75785;SDS011;64402;44.708;37.644;2024-01-30T09:05:25;6.82;;;1.63;;
75785;SDS011;64402;44.708;37.644;2024-01-30T09:07:51;5.55;;;1.65;;
75785;SDS011;64402;44.708;37.644;2024-01-30T09:10:18;3.72;;;1.20;;
75785;SDS011;64402;44.708;37.644;2024-01-30T09:12:44;5.40;;;1.63;;
75785;SDS011;64402;44.708;37.644;2024-01-30T09:15:10;5.03;;;1.55;;
75785;SDS011;64402;44.708;37.644;2024-01-30T09:17:37;7.57;;;2.00;;
75785;SDS011;64402;44.708;37.644;2024-01-30T09:20:03;6.90;;;1.88;;
75785;SDS011;64402;44.708;37.644;2024-01-30T09:22:30;7.88;;;1.80;;
75785;SDS011;64402;44.708;37.644;2024-01-30T09:24:57;8.20;;;2.80;;
75785;SDS011;64402;44.708;37.644;2024-01-30T09:27:23;7.35;;;3.55;;
75785;SDS011;64402;44.708;37.644;2024-01-30T09:29:49;7.72;;;2.80;;
75785;SDS011;64402;44.708;37.644;2024-01-30T09:32:16;5.50;;;2.20;;
75785;SDS011;64402;44.708;37.644;2024-01-30T09:34:43;8.65;;;3.97;;
75785;SDS011;64402;44.708;37.644;2024-01-30T09:37:09;16.10;;;2.85;;
75785;SDS011;64402;44.708;37.644;2024-01-30T09:39:36;7.20;;;2.97;;
75785;SDS011;64402;44.708;37.644;2024-01-30T09:42:28;7.25;;;3.00;;
75785;SDS011;64402;44.708;37.644;2024-01-30T09:44:51;3.67;;;1.52;;
75785;SDS011;64402;44.708;37.644;2024-01-30T09:47:19;5.53;;;2.30;;
75785;SDS011;64402;44.708;37.644;2024-01-30T09:49:46;7.68;;;2.33;;
75785;SDS011;64402;44.708;37.644;2024-01-30T09:54:41;6.82;;;1.98;;
75785;SDS011;64402;44.708;37.644;2024-01-30T09:57:07;8.13;;;2.50;;
75785;SDS011;64402;44.708;37.644;2024-01-30T09:59:35;6.95;;;2.30;;
75785;SDS011;64402;44.708;37.644;2024-01-30T10:02:01;6.88;;;1.75;;
75785;SDS011;64402;44.708;37.644;2024-01-30T10:04:30;5.45;;;2.03;;
75785;SDS011;64402;44.708;37.644;2024-01-30T10:06:56;7.63;;;2.45;;
75785;SDS011;64402;44.708;37.644;2024-01-30T10:09:24;6.70;;;2.53;;
75785;SDS011;64402;44.708;37.644;2024-01-30T10:11:51;9.73;;;2.95;;
75785;SDS011;64402;44.708;37.644;2024-01-30T10:14:17;6.88;;;2.42;;
75785;SDS011;64402;44.708;37.644;2024-01-30T10:16:45;6.38;;;2.38;;
75785;SDS011;64402;44.708;37.644;2024-01-30T10:19:12;7.22;;;3.15;;
75785;SDS011;64402;44.708;37.644;2024-01-30T10:21:38;5.82;;;2.10;;
75785;SDS011;64402;44.708;37.644;2024-01-30T10:24:05;6.93;;;1.80;;
75785;SDS011;64402;44.708;37.644;2024-01-30T10:26:31;7.47;;;1.90;;
75785;SDS011;64402;44.708;37.644;2024-01-30T10:28:59;5.32;;;1.92;;
75785;SDS011;64402;44.708;37.644;2024-01-30T10:31:25;7.25;;;1.80;;
75785;SDS011;64402;44.708;37.644;2024-01-30T10:33:52;6.25;;;2.20;;
75785;SDS011;64402;44.708;37.644;2024-01-30T10:36:18;5.30;;;1.90;;
75785;SDS011;64402;44.708;37.644;2024-01-30T10:38:47;13.75;;;3.08;;
75785;SDS011;64402;44.708;37.644;2024-01-30T10:41:16;8.30;;;3.40;;
75785;SDS011;64402;44.708;37.644;2024-01-30T10:43:50;9.70;;;2.20;;
75785;SDS011;64402;44.708;37.644;2024-01-30T10:46:31;5.10;;;1.73;;
75785;SDS011;64402;44.708;37.644;2024-01-30T10:49:00;5.95;;;1.80;;
75785;SDS011;64402;44.708;37.644;2024-01-30T10:51:27;9.15;;;1.95;;
75785;SDS011;64402;44.708;37.644;2024-01-30T10:53:54;7.13;;;1.80;;
75785;SDS011;64402;44.708;37.644;2024-01-30T10:56:22;6.93;;;1.90;;
75785;SDS011;64402;44.708;37.644;2024-01-30T10:58:52;9.23;;;2.58;;
75785;SDS011;64402;44.708;37.644;2024-01-30T11:01:20;7.45;;;2.22;;
75785;SDS011;64402;44.708;37.644;2024-01-30T11:03:50;6.60;;;2.40;;
75785;SDS011;64402;44.708;37.644;2024-01-30T11:06:23;5.45;;;2.25;;
75785;SDS011;64402;44.708;37.644;2024-01-30T11:09:03;6.38;;;2.05;;
75785;SDS011;64402;44.708;37.644;2024-01-30T11:14:29;4.97;;;1.95;;
75785;SDS011;64402;44.708;37.644;2024-01-30T11:16:58;4.95;;;1.73;;
75785;SDS011;64402;44.708;37.644;2024-01-30T11:19:25;6.15;;;2.28;;
75785;SDS011;64402;44.708;37.644;2024-01-30T11:21:55;7.20;;;2.90;;
75785;SDS011;64402;44.708;37.644;2024-01-30T11:24:24;7.25;;;2.85;;
75785;SDS011;64402;44.708;37.644;2024-01-30T11:27:01;11.55;;;6.28;;
75785;SDS011;64402;44.708;37.644;2024-01-30T11:29:33;6.90;;;1.80;;
75785;SDS011;64402;44.708;37.644;2024-01-30T11:32:01;8.90;;;2.22;;
75785;SDS011;64402;44.708;37.644;2024-01-30T11:34:28;8.48;;;2.03;;
75785;SDS011;64402;44.708;37.644;2024-01-30T11:36:58;7.68;;;2.00;;
75785;SDS011;64402;44.708;37.644;2024-01-30T11:39:28;5.18;;;1.85;;
75785;SDS011;64402;44.708;37.644;2024-01-30T11:41:55;4.95;;;1.65;;
75785;SDS011;64402;44.708;37.644;2024-01-30T11:44:22;5.30;;;1.67;;
75785;SDS011;64402;44.708;37.644;2024-01-30T11:46:49;6.47;;;1.60;;
75785;SDS011;64402;44.708;37.644;2024-01-30T11:49:18;6.65;;;1.70;;
75785;SDS011;64402;44.708;37.644;2024-01-30T11:51:45;6.75;;;1.90;;
75785;SDS011;64402;44.708;37.644;2024-01-30T11:54:14;6.40;;;1.80;;
75785;SDS011;64402;44.708;37.644;2024-01-30T11:56:43;5.63;;;1.95;;
75785;SDS011;64402;44.708;37.644;2024-01-30T11:59:10;7.40;;;1.95;;
75785;SDS011;64402;44.708;37.644;2024-01-30T12:01:36;6.90;;;1.77;;
75785;SDS011;64402;44.708;37.644;2024-01-30T12:04:02;8.75;;;1.92;;
75785;SDS011;64402;44.708;37.644;2024-01-30T12:06:29;4.18;;;1.77;;
75785;SDS011;64402;44.708;37.644;2024-01-30T12:08:58;7.68;;;2.50;;
75785;SDS011;64402;44.708;37.644;2024-01-30T12:11:26;5.28;;;2.10;;
75785;SDS011;64402;44.708;37.644;2024-01-30T12:13:55;5.30;;;2.13;;
75785;SDS011;64402;44.708;37.644;2024-01-30T12:16:22;5.65;;;2.20;;
75785;SDS011;64402;44.708;37.644;2024-01-30T12:18:48;7.35;;;1.83;;
75785;SDS011;64402;44.708;37.644;2024-01-30T12:21:18;5.78;;;1.85;;
75785;SDS011;64402;44.708;37.644;2024-01-30T12:23:44;7.95;;;2.00;;
75785;SDS011;64402;44.708;37.644;2024-01-30T12:26:11;8.52;;;2.20;;
75785;SDS011;64402;44.708;37.644;2024-01-30T12:28:47;6.55;;;2.10;;
75785;SDS011;64402;44.708;37.644;2024-01-30T12:31:13;4.60;;;2.00;;
75785;SDS011;64402;44.708;37.644;2024-01-30T12:33:40;6.82;;;2.50;;
75785;SDS011;64402;44.708;37.644;2024-01-30T12:36:06;6.43;;;2.15;;
75785;SDS011;64402;44.708;37.644;2024-01-30T12:38:33;9.63;;;2.33;;
75785;SDS011;64402;44.708;37.644;2024-01-30T12:40:59;13.30;;;2.67;;
75785;SDS011;64402;44.708;37.644;2024-01-30T12:43:26;9.25;;;2.30;;
75785;SDS011;64402;44.708;37.644;2024-01-30T12:45:53;7.47;;;2.60;;
75785;SDS011;64402;44.708;37.644;2024-01-30T12:48:20;5.60;;;2.63;;
75785;SDS011;64402;44.708;37.644;2024-01-30T12:50:46;8.07;;;2.80;;
75785;SDS011;64402;44.708;37.644;2024-01-30T12:53:13;8.02;;;2.35;;
75785;SDS011;64402;44.708;37.644;2024-01-30T12:55:39;7.28;;;2.58;;
75785;SDS011;64402;44.708;37.644;2024-01-30T12:58:05;7.10;;;2.60;;
75785;SDS011;64402;44.708;37.644;2024-01-30T13:00:32;13.32;;;3.10;;
75785;SDS011;64402;44.708;37.644;2024-01-30T13:03:00;8.55;;;3.00;;
75785;SDS011;64402;44.708;37.644;2024-01-30T13:05:26;7.43;;;3.20;;
75785;SDS011;64402;44.708;37.644;2024-01-30T13:07:53;9.05;;;2.75;;
75785;SDS011;64402;44.708;37.644;2024-01-30T13:10:19;7.93;;;2.85;;
75785;SDS011;64402;44.708;37.644;2024-01-30T13:12:45;10.25;;;3.05;;
75785;SDS011;64402;44.708;37.644;2024-01-30T13:15:12;7.53;;;2.83;;
75785;SDS011;64402;44.708;37.644;2024-01-30T13:17:38;8.43;;;2.70;;
75785;SDS011;64402;44.708;37.644;2024-01-30T13:20:04;9.95;;;2.78;;
75785;SDS011;64402;44.708;37.644;2024-01-30T13:22:33;8.25;;;3.05;;
75785;SDS011;64402;44.708;37.644;2024-01-30T13:25:00;7.88;;;2.70;;
75785;SDS011;64402;44.708;37.644;2024-01-30T13:27:26;16.85;;;2.65;;
75785;SDS011;64402;44.708;37.644;2024-01-30T13:29:53;6.78;;;2.60;;
75785;SDS011;64402;44.708;37.644;2024-01-30T13:32:19;6.55;;;2.90;;
75785;SDS011;64402;44.708;37.644;2024-01-30T13:34:48;18.92;;;3.28;;
75785;SDS011;64402;44.708;37.644;2024-01-30T13:37:14;7.68;;;3.30;;
75785;SDS011;64402;44.708;37.644;2024-01-30T13:39:41;9.00;;;2.63;;
75785;SDS011;64402;44.708;37.644;2024-01-30T13:42:07;9.93;;;3.00;;
75785;SDS011;64402;44.708;37.644;2024-01-30T13:44:34;7.80;;;2.78;;
75785;SDS011;64402;44.708;37.644;2024-01-30T13:47:02;8.38;;;3.90;;
75785;SDS011;64402;44.708;37.644;2024-01-30T13:49:28;9.02;;;4.47;;
75785;SDS011;64402;44.708;37.644;2024-01-30T13:51:54;10.43;;;4.50;;
75785;SDS011;64402;44.708;37.644;2024-01-30T13:54:21;17.52;;;5.82;;
75785;SDS011;64402;44.708;37.644;2024-01-30T13:56:47;10.35;;;4.45;;
75785;SDS011;64402;44.708;37.644;2024-01-30T13:59:13;13.43;;;3.95;;
75785;SDS011;64402;44.708;37.644;2024-01-30T14:01:40;10.25;;;4.20;;
75785;SDS011;64402;44.708;37.644;2024-01-30T14:04:06;11.40;;;4.85;;
75785;SDS011;64402;44.708;37.644;2024-01-30T14:06:32;9.80;;;4.07;;
75785;SDS011;64402;44.708;37.644;2024-01-30T14:08:59;10.07;;;4.13;;
75785;SDS011;64402;44.708;37.644;2024-01-30T14:11:25;12.13;;;5.32;;
75785;SDS011;64402;44.708;37.644;2024-01-30T14:13:51;14.80;;;7.63;;
75785;SDS011;64402;44.708;37.644;2024-01-30T14:16:18;15.60;;;5.47;;
75785;SDS011;64402;44.708;37.644;2024-01-30T14:18:45;9.10;;;4.32;;
75785;SDS011;64402;44.708;37.644;2024-01-30T14:21:11;17.20;;;4.40;;
75785;SDS011;64402;44.708;37.644;2024-01-30T14:23:37;15.98;;;4.78;;
75785;SDS011;64402;44.708;37.644;2024-01-30T14:26:04;14.80;;;4.50;;
75785;SDS011;64402;44.708;37.644;2024-01-30T14:28:31;12.80;;;4.90;;
75785;SDS011;64402;44.708;37.644;2024-01-30T14:30:58;9.65;;;4.55;;
75785;SDS011;64402;44.708;37.644;2024-01-30T14:33:24;12.57;;;5.30;;
75785;SDS011;64402;44.708;37.644;2024-01-30T14:35:51;13.27;;;6.57;;
75785;SDS011;64402;44.708;37.644;2024-01-30T14:38:18;17.77;;;6.05;;